Altoona, Florida
Current Conditions -  °F | °C
As of 7:53 PM on Sunday 23 Nov 2014 (Local Time) from KLEE Reporting Station
Clear Clear  
Wind Chill: 22°   Ceiling: Unl
Heat Index: 22°   Visibility: 10mi
Dew Point: 20°   Wind: 3mph
Humidity: 90%   Direction: 190°S
Pressure: 29.93"   Gusts: NA
Location:  28.97°N, 81.65°W
Report Text: KLEE 240053Z AUTO 19003KT 10SM CLR 22/20 A2993 RMK AO2 SLP133 T02170200 $
Loading
Personal Weather Stations






























Interactive Weather Map New forecast layout! Learn more

10-Day Weather Forecast

Advertisements
Track Severe Weather on mobile